createdAt,value
2023-03-14T00:00:12.484Z,10.88
2023-03-14T00:01:15.569Z,10.88
2023-03-14T00:02:18.846Z,10.94
2023-03-14T00:03:54.209Z,10.94
2023-03-14T00:04:57.284Z,10.94
2023-03-14T00:06:00.149Z,10.94
2023-03-14T00:07:35.029Z,10.94
2023-03-14T00:08:38.138Z,10.94
2023-03-14T00:09:41.505Z,10.94
2023-03-14T00:11:16.655Z,11.00
2023-03-14T00:12:19.800Z,11.00
2023-03-14T00:13:22.729Z,11.00
2023-03-14T00:14:57.601Z,11.00
2023-03-14T00:16:00.696Z,11.00
2023-03-14T00:17:03.905Z,11.00
2023-03-14T00:18:38.932Z,11.00
2023-03-14T00:19:42.207Z,11.06
2023-03-14T00:20:45.123Z,11.00
2023-03-14T00:22:20.047Z,11.00
2023-03-14T00:23:23.029Z,11.00
2023-03-14T00:24:26.014Z,11.00
2023-03-14T00:26:00.905Z,11.00
2023-03-14T00:27:03.881Z,10.94
2023-03-14T00:28:06.850Z,10.94
2023-03-14T00:29:41.872Z,11.00
2023-03-14T00:30:45.168Z,11.00
2023-03-14T00:31:48.449Z,11.00
2023-03-14T00:33:23.613Z,11.00
2023-03-14T00:34:26.732Z,11.00
2023-03-14T00:35:29.663Z,11.00
2023-03-14T00:37:04.589Z,11.06
2023-03-14T00:38:07.738Z,11.06
2023-03-14T00:39:10.622Z,11.06
2023-03-14T00:40:45.426Z,11.06
2023-03-14T00:41:48.412Z,11.00
2023-03-14T00:42:51.588Z,11.00
2023-03-14T00:44:26.624Z,11.00
2023-03-14T00:45:29.456Z,11.00
2023-03-14T00:46:32.667Z,11.00
2023-03-14T00:48:10.309Z,10.94
2023-03-14T00:49:13.354Z,10.94
2023-03-14T00:50:16.499Z,10.94
2023-03-14T00:51:51.376Z,10.88
2023-03-14T00:52:54.302Z,10.88
2023-03-14T00:53:57.371Z,10.81
2023-03-14T00:55:32.108Z,10.81
2023-03-14T00:56:35.144Z,10.81
2023-03-14T00:57:38.001Z,10.75
2023-03-14T00:59:12.635Z,10.75
2023-03-14T01:00:12.043Z,10.75
2023-03-14T01:01:14.851Z,10.75
2023-03-14T01:02:18.229Z,10.75
2023-03-14T01:03:53.550Z,10.69
2023-03-14T01:04:56.559Z,10.69
2023-03-14T01:05:59.647Z,10.69
2023-03-14T01:07:34.603Z,10.69
2023-03-14T01:08:37.681Z,10.69
2023-03-14T01:09:40.709Z,10.63
2023-03-14T01:11:15.699Z,10.63
2023-03-14T01:12:18.644Z,10.56
2023-03-14T01:13:21.437Z,10.56
2023-03-14T01:14:56.082Z,10.56
2023-03-14T01:15:59.067Z,10.50
2023-03-14T01:17:02.284Z,10.50
2023-03-14T01:18:36.895Z,10.50
2023-03-14T01:19:39.802Z,10.44
2023-03-14T01:20:43.468Z,10.44
2023-03-14T01:22:18.320Z,10.44
2023-03-14T01:23:21.398Z,10.44
2023-03-14T01:24:24.416Z,10.38
2023-03-14T01:25:59.410Z,10.38
2023-03-14T01:27:02.471Z,10.38
2023-03-14T01:28:05.433Z,10.38
2023-03-14T01:29:40.167Z,10.31
2023-03-14T01:30:43.270Z,10.31
2023-03-14T01:31:46.355Z,10.31
2023-03-14T01:33:21.514Z,10.31
2023-03-14T01:34:24.438Z,10.31
2023-03-14T01:35:27.195Z,10.31
2023-03-14T01:37:04.691Z,10.25
2023-03-14T01:38:07.700Z,10.25
2023-03-14T01:39:10.810Z,10.25
2023-03-14T01:40:46.091Z,10.19
2023-03-14T01:41:49.207Z,10.19
2023-03-14T01:42:52.296Z,10.19
2023-03-14T01:44:27.259Z,10.19
2023-03-14T01:45:30.328Z,10.19
2023-03-14T01:46:33.598Z,10.13
2023-03-14T01:48:08.521Z,10.13
2023-03-14T01:49:11.522Z,10.13
2023-03-14T01:50:14.376Z,10.06
2023-03-14T01:51:49.405Z,10.06
2023-03-14T01:52:52.208Z,10.06
2023-03-14T01:53:55.189Z,10.00
2023-03-14T01:55:30.189Z,10.00
2023-03-14T01:56:33.281Z,10.00
2023-03-14T01:57:36.257Z,9.94
2023-03-14T01:59:11.096Z,9.94
2023-03-14T02:00:11.737Z,9.94
2023-03-14T02:01:14.734Z,9.94
2023-03-14T02:02:17.938Z,9.94
2023-03-14T02:03:53.344Z,10.00
2023-03-14T02:04:56.185Z,9.94
2023-03-14T02:05:59.280Z,9.88
2023-03-14T02:07:34.070Z,9.88
2023-03-14T02:08:37.044Z,9.75
2023-03-14T02:09:40.000Z,9.75
2023-03-14T02:11:14.973Z,9.56
2023-03-14T02:12:18.034Z,9.50
2023-03-14T02:13:20.909Z,9.50
2023-03-14T02:14:55.782Z,9.44
2023-03-14T02:15:59.007Z,9.38
2023-03-14T02:17:02.643Z,9.38
2023-03-14T02:18:37.485Z,9.25
2023-03-14T02:19:40.493Z,9.19
2023-03-14T02:20:43.496Z,9.19
2023-03-14T02:22:18.458Z,9.13
2023-03-14T02:23:21.330Z,9.06
2023-03-14T02:24:24.057Z,9.06
2023-03-14T02:25:58.773Z,9.00
2023-03-14T02:27:01.713Z,8.94
2023-03-14T02:28:04.620Z,8.94
2023-03-14T02:29:39.849Z,8.88
2023-03-14T02:30:42.701Z,8.81
2023-03-14T02:31:45.613Z,8.81
2023-03-14T02:33:20.830Z,8.81
2023-03-14T02:34:23.738Z,8.75
2023-03-14T02:35:26.865Z,8.69
2023-03-14T02:37:02.105Z,8.69
2023-03-14T02:38:04.987Z,8.69
2023-03-14T02:39:08.057Z,8.69
2023-03-14T02:40:42.788Z,8.69
2023-03-14T02:41:45.580Z,8.75
2023-03-14T02:42:48.677Z,8.75
2023-03-14T02:44:23.772Z,8.75
2023-03-14T02:45:26.894Z,8.75
2023-03-14T02:46:30.316Z,8.75
2023-03-14T02:48:05.346Z,8.75
2023-03-14T02:49:08.477Z,8.75
2023-03-14T02:50:11.473Z,8.75
2023-03-14T02:51:46.458Z,8.81
2023-03-14T02:52:49.180Z,8.81
2023-03-14T02:53:52.060Z,8.81
2023-03-14T02:55:27.081Z,8.81
2023-03-14T02:56:29.925Z,8.81
2023-03-14T02:57:32.824Z,8.75
2023-03-14T02:59:07.486Z,8.81
2023-03-14T03:00:12.416Z,8.81
2023-03-14T03:01:15.719Z,8.81
2023-03-14T03:02:19.286Z,8.81
2023-03-14T03:03:54.454Z,8.81
2023-03-14T03:04:57.483Z,8.81
2023-03-14T03:06:00.479Z,8.81
2023-03-14T03:07:35.338Z,8.81
2023-03-14T03:08:38.377Z,8.81
2023-03-14T03:09:41.176Z,8.81
2023-03-14T03:11:16.008Z,8.81
2023-03-14T03:12:18.886Z,8.75
2023-03-14T03:13:21.881Z,8.75
2023-03-14T03:14:56.600Z,8.75
2023-03-14T03:15:59.446Z,8.75
2023-03-14T03:17:02.699Z,8.75
2023-03-14T03:18:37.705Z,8.69
2023-03-14T03:19:40.817Z,8.69
2023-03-14T03:20:43.960Z,8.69
2023-03-14T03:22:18.766Z,8.69
2023-03-14T03:23:21.740Z,8.69
2023-03-14T03:24:24.677Z,8.69
2023-03-14T03:25:59.614Z,8.75
2023-03-14T03:27:02.737Z,8.69
2023-03-14T03:28:05.665Z,8.69
2023-03-14T03:29:40.550Z,8.69
2023-03-14T03:30:43.796Z,8.69
2023-03-14T03:31:47.210Z,8.75
2023-03-14T03:33:22.104Z,8.75
2023-03-14T03:34:25.109Z,8.75
2023-03-14T03:35:28.237Z,8.75
2023-03-14T03:37:03.699Z,8.75
2023-03-14T03:38:06.673Z,8.75
2023-03-14T03:39:09.608Z,8.75
2023-03-14T03:40:44.676Z,8.75
2023-03-14T03:41:47.670Z,8.75
2023-03-14T03:42:50.562Z,8.75
2023-03-14T03:44:25.368Z,8.75
2023-03-14T03:45:28.072Z,8.75
2023-03-14T03:46:31.084Z,8.75
2023-03-14T03:48:05.927Z,8.75
2023-03-14T03:49:08.811Z,8.75
2023-03-14T03:50:11.674Z,8.75
2023-03-14T03:51:46.729Z,8.75
2023-03-14T03:52:49.991Z,8.75
2023-03-14T03:54:08.583Z,8.69
2023-03-14T03:55:43.359Z,8.69
2023-03-14T03:56:46.414Z,8.69
2023-03-14T03:57:49.547Z,8.69
2023-03-14T03:59:24.465Z,8.69
2023-03-14T04:00:11.995Z,8.69
2023-03-14T04:01:15.038Z,8.69
2023-03-14T04:02:18.928Z,8.69
2023-03-14T04:03:55.646Z,8.69
2023-03-14T04:04:59.753Z,8.69
2023-03-14T04:06:02.976Z,8.69
2023-03-14T04:07:38.005Z,8.69
2023-03-14T04:08:41.054Z,8.69
2023-03-14T04:09:44.190Z,8.69
2023-03-14T04:11:19.062Z,8.69
2023-03-14T04:12:22.300Z,8.69
2023-03-14T04:13:25.473Z,8.69
2023-03-14T04:15:00.508Z,8.69
2023-03-14T04:16:03.545Z,8.69
2023-03-14T04:17:07.077Z,8.69
2023-03-14T04:18:41.724Z,8.69
2023-03-14T04:19:44.597Z,8.69
2023-03-14T04:20:47.498Z,8.69
2023-03-14T04:22:22.273Z,8.69
2023-03-14T04:23:25.326Z,8.69
2023-03-14T04:24:28.252Z,8.69
2023-03-14T04:26:03.750Z,8.69
2023-03-14T04:27:06.968Z,8.69
2023-03-14T04:28:09.843Z,8.69
2023-03-14T04:29:47.055Z,8.69
2023-03-14T04:30:50.019Z,8.69
2023-03-14T04:31:53.546Z,8.69
2023-03-14T04:33:28.645Z,8.75
2023-03-14T04:34:32.469Z,8.75
2023-03-14T04:35:35.378Z,8.69
2023-03-14T04:37:14.444Z,8.69
2023-03-14T04:38:17.286Z,8.69
2023-03-14T04:39:20.084Z,8.69
2023-03-14T04:40:54.835Z,8.69
2023-03-14T04:41:57.761Z,8.69
2023-03-14T04:43:00.749Z,8.69
2023-03-14T04:44:35.940Z,8.69
2023-03-14T04:45:38.809Z,8.75
2023-03-14T04:46:41.847Z,8.75
2023-03-14T04:48:17.065Z,8.75
2023-03-14T04:49:20.008Z,8.75
2023-03-14T04:50:23.028Z,8.81
2023-03-14T04:51:57.641Z,8.81
2023-03-14T04:53:00.471Z,8.81
2023-03-14T04:54:05.135Z,8.81
2023-03-14T04:55:40.226Z,8.81
2023-03-14T04:56:43.094Z,8.81
2023-03-14T04:57:45.917Z,8.88
2023-03-14T04:59:20.740Z,8.88
2023-03-14T05:00:12.816Z,8.88
2023-03-14T05:01:15.825Z,8.88
2023-03-14T05:02:19.195Z,8.88
2023-03-14T05:03:54.962Z,8.88
2023-03-14T05:04:57.958Z,8.88
2023-03-14T05:05:41.413Z,8.88
2023-03-14T05:06:44.867Z,8.88
2023-03-14T05:07:50.006Z,8.94
2023-03-14T05:09:25.385Z,8.94
2023-03-14T05:10:28.643Z,8.94
2023-03-14T05:11:31.699Z,8.94
2023-03-14T05:13:06.843Z,8.94
2023-03-14T05:14:09.974Z,8.94
2023-03-14T05:15:13.275Z,8.94
2023-03-14T05:16:48.741Z,8.94
2023-03-14T05:17:52.013Z,8.94
2023-03-14T05:18:55.076Z,8.94
2023-03-14T05:20:30.638Z,8.94
2023-03-14T05:21:33.832Z,8.94
2023-03-14T05:22:36.906Z,8.94
2023-03-14T05:24:12.208Z,8.94
2023-03-14T05:25:15.385Z,8.94
2023-03-14T05:26:18.818Z,8.94
2023-03-14T05:27:53.701Z,8.94
2023-03-14T05:28:56.533Z,9.00
2023-03-14T05:29:59.634Z,9.00
2023-03-14T05:31:34.572Z,9.00
2023-03-14T05:32:38.203Z,9.00
2023-03-14T05:33:41.547Z,9.00
2023-03-14T05:35:16.733Z,9.00
2023-03-14T05:36:19.891Z,9.00
2023-03-14T05:37:23.480Z,9.00
2023-03-14T05:38:58.727Z,9.00
2023-03-14T05:40:01.625Z,9.00
2023-03-14T05:41:04.462Z,9.00
2023-03-14T05:42:39.357Z,9.00
2023-03-14T05:43:42.427Z,9.00
2023-03-14T05:44:45.453Z,9.00
2023-03-14T05:46:22.160Z,9.00
2023-03-14T05:47:25.319Z,9.06
2023-03-14T05:48:28.365Z,9.06
2023-03-14T05:50:03.396Z,9.06
2023-03-14T05:51:06.244Z,9.06
2023-03-14T05:52:09.284Z,9.06
2023-03-14T05:53:44.289Z,9.13
2023-03-14T05:54:47.282Z,9.13
2023-03-14T05:55:50.507Z,9.13
2023-03-14T05:57:27.485Z,9.13
2023-03-14T05:58:30.787Z,9.13
2023-03-14T05:59:33.686Z,9.13
2023-03-14T06:00:11.931Z,9.13
2023-03-14T06:01:14.896Z,9.06
2023-03-14T06:02:18.111Z,9.06
2023-03-14T06:03:54.256Z,9.06
2023-03-14T06:04:57.279Z,9.00
2023-03-14T06:06:00.518Z,9.00
2023-03-14T06:07:35.570Z,8.94
2023-03-14T06:08:38.617Z,8.94
2023-03-14T06:09:41.831Z,8.94
2023-03-14T06:11:16.637Z,8.88
2023-03-14T06:12:19.895Z,8.88
2023-03-14T06:13:23.202Z,8.81
2023-03-14T06:14:58.241Z,8.81
2023-03-14T06:16:01.191Z,8.81
2023-03-14T06:17:04.627Z,8.81
2023-03-14T06:18:39.904Z,8.75
2023-03-14T06:19:42.899Z,8.75
2023-03-14T06:20:46.046Z,8.75
2023-03-14T06:22:20.982Z,8.75
2023-03-14T06:23:24.037Z,8.75
2023-03-14T06:24:27.312Z,8.69
2023-03-14T06:26:02.279Z,8.69
2023-03-14T06:27:05.209Z,8.69
2023-03-14T06:28:08.366Z,8.69
2023-03-14T06:29:44.286Z,8.63
2023-03-14T06:30:47.668Z,8.63
2023-03-14T06:31:51.155Z,8.63
2023-03-14T06:33:26.626Z,8.63
2023-03-14T06:34:29.458Z,8.63
2023-03-14T06:35:32.549Z,8.63
2023-03-14T06:37:07.826Z,8.63
2023-03-14T06:38:12.881Z,8.63
2023-03-14T06:39:15.844Z,8.63
2023-03-14T06:40:50.903Z,8.63
2023-03-14T06:41:53.790Z,8.63
2023-03-14T06:42:56.727Z,8.63
2023-03-14T06:44:31.737Z,8.63
2023-03-14T06:45:34.602Z,8.63
2023-03-14T06:46:38.184Z,8.63
2023-03-14T06:48:12.988Z,8.63
2023-03-14T06:49:15.922Z,8.63
2023-03-14T06:50:18.798Z,8.63
2023-03-14T06:51:53.665Z,8.63
2023-03-14T06:52:56.654Z,8.63
2023-03-14T06:54:00.015Z,8.63
2023-03-14T06:55:35.079Z,8.63
2023-03-14T06:56:38.211Z,8.69
2023-03-14T06:57:41.273Z,8.69
2023-03-14T06:59:16.406Z,8.69
2023-03-14T07:00:12.609Z,8.69
2023-03-14T07:01:15.856Z,8.69
2023-03-14T07:02:21.450Z,8.75
2023-03-14T07:04:12.382Z,8.75
2023-03-14T07:05:15.902Z,8.81
2023-03-14T07:06:18.939Z,8.81
2023-03-14T07:07:53.785Z,8.81
2023-03-14T07:08:56.689Z,8.81
2023-03-14T07:10:01.482Z,8.75
2023-03-14T07:11:36.895Z,8.75
2023-03-14T07:12:40.071Z,8.81
2023-03-14T07:13:43.049Z,8.75
2023-03-14T07:15:19.276Z,8.81
2023-03-14T07:16:23.050Z,8.75
2023-03-14T07:17:26.096Z,8.81
2023-03-14T07:19:01.118Z,8.75
2023-03-14T07:20:04.304Z,8.75
2023-03-14T07:21:07.441Z,8.75
2023-03-14T07:22:42.436Z,8.75
2023-03-14T07:23:45.305Z,8.75
2023-03-14T07:24:48.073Z,8.75
2023-03-14T07:26:22.785Z,8.75
2023-03-14T07:27:25.649Z,8.75
2023-03-14T07:28:28.592Z,8.69
2023-03-14T07:30:03.560Z,8.63
2023-03-14T07:31:06.591Z,8.44
2023-03-14T07:32:10.048Z,8.38
2023-03-14T07:33:46.512Z,8.06
2023-03-14T07:34:49.532Z,7.94
2023-03-14T07:35:52.448Z,7.81
2023-03-14T07:37:27.511Z,7.69
2023-03-14T07:38:30.472Z,7.63
2023-03-14T07:39:33.502Z,7.63
2023-03-14T07:41:08.322Z,7.56
2023-03-14T07:42:11.352Z,7.56
2023-03-14T07:43:14.277Z,7.56
2023-03-14T07:44:49.177Z,7.50
2023-03-14T07:45:59.158Z,7.50
2023-03-14T07:47:02.833Z,7.44
2023-03-14T07:48:37.706Z,7.31
2023-03-14T07:49:40.857Z,7.31
2023-03-14T07:50:43.785Z,7.31
2023-03-14T07:52:18.953Z,7.25
2023-03-14T07:53:21.952Z,7.25
2023-03-14T07:54:24.814Z,7.25
2023-03-14T07:55:59.894Z,7.19
2023-03-14T07:57:02.888Z,7.13
2023-03-14T07:58:05.997Z,7.13
2023-03-14T07:59:40.712Z,7.13
2023-03-14T08:00:14.737Z,7.06
2023-03-14T08:01:18.606Z,7.06
2023-03-14T08:02:21.907Z,7.06
2023-03-14T08:03:57.253Z,7.06
2023-03-14T08:05:00.594Z,7.06
2023-03-14T08:06:03.606Z,7.00
2023-03-14T08:07:38.548Z,7.00
2023-03-14T08:08:41.542Z,7.00
2023-03-14T08:09:44.498Z,7.00
2023-03-14T08:11:19.264Z,7.00
2023-03-14T08:12:22.169Z,7.00
2023-03-14T08:13:24.981Z,7.00
2023-03-14T08:14:59.880Z,7.00
2023-03-14T08:16:03.040Z,7.00
2023-03-14T08:17:06.529Z,7.00
2023-03-14T08:18:41.648Z,7.06
2023-03-14T08:19:44.658Z,7.06
2023-03-14T08:20:48.220Z,7.00
2023-03-14T08:22:23.298Z,7.00
2023-03-14T08:23:26.337Z,7.00
2023-03-14T08:24:29.241Z,7.00
2023-03-14T08:26:04.280Z,7.00
2023-03-14T08:27:09.674Z,6.94
2023-03-14T08:28:13.684Z,6.94
2023-03-14T08:29:48.477Z,6.88
2023-03-14T08:30:51.423Z,6.75
2023-03-14T08:31:55.790Z,6.75
2023-03-14T08:33:31.240Z,6.69
2023-03-14T08:34:33.999Z,6.63
2023-03-14T08:35:37.007Z,6.63
2023-03-14T08:37:23.763Z,6.44
2023-03-14T08:38:29.608Z,6.38
2023-03-14T08:39:32.728Z,6.25
2023-03-14T08:41:07.683Z,6.13
2023-03-14T08:42:10.674Z,6.00
2023-03-14T08:43:13.822Z,5.94
2023-03-14T08:44:49.112Z,5.88
2023-03-14T08:45:52.251Z,5.81
2023-03-14T08:46:55.232Z,5.75
2023-03-14T08:48:30.386Z,5.75
2023-03-14T08:49:33.400Z,5.75
2023-03-14T08:50:36.729Z,5.81
2023-03-14T08:52:11.652Z,5.75
2023-03-14T08:53:14.704Z,5.69
2023-03-14T08:54:17.777Z,5.69
2023-03-14T08:55:52.700Z,5.63
2023-03-14T08:56:55.778Z,5.63
2023-03-14T08:57:58.803Z,5.56
2023-03-14T08:59:33.736Z,5.56
2023-03-14T09:00:11.952Z,5.50
2023-03-14T09:01:15.108Z,5.50
2023-03-14T09:02:18.732Z,5.50
2023-03-14T09:03:54.065Z,5.56
2023-03-14T09:04:57.351Z,5.56
2023-03-14T09:06:00.110Z,5.56
2023-03-14T09:07:34.937Z,5.69
2023-03-14T09:08:39.448Z,5.63
2023-03-14T09:09:42.574Z,5.63
2023-03-14T09:11:17.319Z,5.63
2023-03-14T09:12:20.555Z,5.69
2023-03-14T09:13:23.782Z,5.69
2023-03-14T09:14:58.567Z,5.69
2023-03-14T09:16:01.608Z,5.75
2023-03-14T09:17:04.812Z,5.75
2023-03-14T09:18:39.887Z,5.75
2023-03-14T09:19:42.725Z,5.75
2023-03-14T09:20:47.054Z,5.88
2023-03-14T09:22:21.764Z,5.88
2023-03-14T09:23:24.565Z,5.88
2023-03-14T09:24:27.358Z,5.94
2023-03-14T09:26:02.241Z,5.94
2023-03-14T09:27:05.055Z,5.94
2023-03-14T09:28:08.092Z,6.00
2023-03-14T09:29:44.731Z,5.94
2023-03-14T09:30:47.631Z,5.94
2023-03-14T09:31:50.718Z,6.00
2023-03-14T09:33:26.505Z,6.00
2023-03-14T09:34:29.541Z,6.06
2023-03-14T09:35:34.354Z,6.06
2023-03-14T09:37:09.283Z,6.13
2023-03-14T09:38:12.255Z,6.19
2023-03-14T09:39:15.239Z,6.19
2023-03-14T09:40:52.565Z,6.19
2023-03-14T09:41:55.483Z,6.19
2023-03-14T09:42:58.222Z,6.19
2023-03-14T09:44:32.975Z,6.06
2023-03-14T09:45:36.028Z,6.06
2023-03-14T09:46:39.625Z,6.13
2023-03-14T09:48:31.541Z,6.06
2023-03-14T09:49:34.761Z,6.13
2023-03-14T09:50:37.738Z,6.13
2023-03-14T09:52:12.518Z,6.19
2023-03-14T09:53:15.795Z,6.19
2023-03-14T09:54:18.650Z,6.25
2023-03-14T09:55:53.713Z,6.25
2023-03-14T09:56:56.812Z,6.25
2023-03-14T09:57:59.686Z,6.25
2023-03-14T09:59:34.740Z,6.38
2023-03-14T10:00:12.446Z,6.44
2023-03-14T10:01:15.538Z,6.50
2023-03-14T10:02:19.553Z,6.56
2023-03-14T10:03:54.741Z,6.63
2023-03-14T10:04:58.362Z,6.69
2023-03-14T10:06:04.646Z,6.75
2023-03-14T10:07:39.961Z,6.69
2023-03-14T10:08:42.879Z,6.63
2023-03-14T10:09:45.983Z,6.69
2023-03-14T10:11:21.002Z,6.69
2023-03-14T10:12:23.967Z,6.69
2023-03-14T10:13:29.668Z,6.75
2023-03-14T10:15:04.651Z,6.81
2023-03-14T10:16:07.430Z,6.88
2023-03-14T10:17:10.600Z,6.88
2023-03-14T10:18:45.431Z,6.94
2023-03-14T10:19:48.561Z,7.00
2023-03-14T10:20:51.522Z,6.94
2023-03-14T10:22:26.423Z,7.00
2023-03-14T10:23:29.488Z,7.06
2023-03-14T10:24:36.000Z,7.06
2023-03-14T10:26:11.242Z,7.06
2023-03-14T10:27:13.997Z,7.13
2023-03-14T10:28:16.939Z,7.13
2023-03-14T10:29:51.628Z,7.13
2023-03-14T10:30:57.292Z,7.06
2023-03-14T10:32:00.388Z,7.00
2023-03-14T10:33:36.104Z,6.81
2023-03-14T10:34:39.123Z,6.69
2023-03-14T10:35:42.284Z,6.69
2023-03-14T10:37:21.596Z,6.56
2023-03-14T10:38:24.627Z,6.38
2023-03-14T10:39:27.762Z,6.31
2023-03-14T10:41:03.096Z,6.25
2023-03-14T10:42:06.226Z,6.19
2023-03-14T10:43:09.249Z,6.19
2023-03-14T10:44:44.220Z,6.19
2023-03-14T10:45:47.068Z,6.19
2023-03-14T10:46:50.099Z,6.19
2023-03-14T10:48:25.485Z,6.31
2023-03-14T10:49:28.581Z,6.31
2023-03-14T10:50:31.658Z,6.31
2023-03-14T10:52:06.433Z,6.38
2023-03-14T10:53:41.458Z,6.44
2023-03-14T10:54:44.585Z,6.44
2023-03-14T10:56:19.522Z,6.44
2023-03-14T10:57:22.413Z,6.50
2023-03-14T10:58:25.376Z,6.56
2023-03-14T11:00:12.273Z,6.56
2023-03-14T11:01:15.528Z,6.56
2023-03-14T11:02:18.885Z,6.63
2023-03-14T11:03:53.927Z,6.63
2023-03-14T11:04:57.023Z,6.63
2023-03-14T11:06:00.474Z,6.69
2023-03-14T11:07:35.324Z,6.75
2023-03-14T11:08:38.185Z,6.81
2023-03-14T11:09:41.066Z,6.75
2023-03-14T11:11:15.930Z,6.69
2023-03-14T11:12:18.902Z,6.63
2023-03-14T11:13:21.881Z,6.56
2023-03-14T11:14:56.901Z,6.56
2023-03-14T11:15:59.926Z,6.56
2023-03-14T11:17:03.618Z,6.50
2023-03-14T11:18:38.428Z,6.50
2023-03-14T11:19:41.386Z,6.50
2023-03-14T11:20:44.470Z,6.50
2023-03-14T11:22:19.051Z,6.50
2023-03-14T11:23:21.970Z,6.56
2023-03-14T11:24:24.793Z,6.56
2023-03-14T11:25:59.447Z,6.63
2023-03-14T11:27:02.489Z,6.69
2023-03-14T11:28:05.835Z,6.75
2023-03-14T11:29:40.566Z,6.81
2023-03-14T11:30:43.457Z,6.88
2023-03-14T11:31:46.926Z,6.88
2023-03-14T11:33:22.976Z,6.94
2023-03-14T11:34:26.088Z,6.94
2023-03-14T11:35:32.404Z,6.94
2023-03-14T11:37:08.460Z,7.00
2023-03-14T11:38:11.443Z,7.06
2023-03-14T11:39:15.033Z,7.13
2023-03-14T11:40:50.238Z,7.25
2023-03-14T11:41:53.212Z,7.25
2023-03-14T11:42:58.212Z,7.31
2023-03-14T11:44:33.175Z,7.19
2023-03-14T11:45:36.193Z,7.19
2023-03-14T11:46:39.659Z,7.13
2023-03-14T11:48:19.112Z,7.06
2023-03-14T11:49:22.487Z,7.06
2023-03-14T11:50:25.771Z,7.00
2023-03-14T11:52:01.350Z,7.13
2023-03-14T11:53:04.114Z,7.19
2023-03-14T11:54:07.057Z,7.31
2023-03-14T11:55:41.771Z,7.44
2023-03-14T11:56:44.642Z,7.50
2023-03-14T11:57:47.526Z,7.56
2023-03-14T11:59:24.253Z,7.63
2023-03-14T12:00:11.788Z,7.63
2023-03-14T12:01:14.720Z,7.56
2023-03-14T12:02:17.989Z,7.50
2023-03-14T12:03:53.055Z,7.38
2023-03-14T12:04:57.005Z,7.38
2023-03-14T12:05:59.936Z,7.44
2023-03-14T12:07:34.914Z,7.56
2023-03-14T12:08:38.067Z,7.63
2023-03-14T12:09:41.008Z,7.75
2023-03-14T12:11:19.351Z,7.81
2023-03-14T12:12:22.221Z,7.56
2023-03-14T12:13:25.118Z,7.50
2023-03-14T12:14:59.765Z,7.44
2023-03-14T12:16:02.604Z,7.38
2023-03-14T12:17:06.057Z,7.38
2023-03-14T12:18:41.344Z,7.50
2023-03-14T12:19:44.428Z,7.63
2023-03-14T12:20:47.674Z,7.69
2023-03-14T12:22:22.646Z,7.75
2023-03-14T12:23:25.636Z,7.75
2023-03-14T12:24:30.583Z,7.81
2023-03-14T12:26:06.899Z,7.94
2023-03-14T12:27:09.768Z,8.00
2023-03-14T12:28:12.608Z,8.00
2023-03-14T12:29:47.445Z,7.94
2023-03-14T12:30:50.900Z,7.88
2023-03-14T12:31:53.974Z,7.88
2023-03-14T12:33:29.100Z,7.69
2023-03-14T12:34:32.788Z,7.63
2023-03-14T12:35:36.010Z,7.56
2023-03-14T12:37:11.627Z,7.44
2023-03-14T12:38:14.570Z,7.38
2023-03-14T12:39:17.684Z,7.31
2023-03-14T12:40:53.668Z,7.31
2023-03-14T12:41:56.648Z,7.25
2023-03-14T12:43:10.305Z,7.13
2023-03-14T12:44:45.223Z,7.13
2023-03-14T12:45:48.106Z,7.19
2023-03-14T12:46:51.808Z,7.25
2023-03-14T12:48:27.061Z,7.38
2023-03-14T12:49:29.956Z,7.50
2023-03-14T12:50:33.116Z,7.63
2023-03-14T12:52:08.459Z,7.56
2023-03-14T12:53:11.415Z,7.56
2023-03-14T12:54:14.254Z,7.44
2023-03-14T12:55:49.229Z,7.31
2023-03-14T12:56:52.382Z,7.31
2023-03-14T12:57:55.274Z,7.31
2023-03-14T12:59:31.457Z,7.44
2023-03-14T13:00:12.365Z,7.50
2023-03-14T13:01:15.395Z,7.63
2023-03-14T13:02:18.554Z,7.69
2023-03-14T13:03:53.309Z,7.75
2023-03-14T13:05:14.023Z,7.81
2023-03-14T13:06:18.491Z,7.88
2023-03-14T13:07:53.353Z,7.88
2023-03-14T13:08:56.273Z,7.81
2023-03-14T13:09:59.475Z,7.81
2023-03-14T13:11:35.271Z,7.69
2023-03-14T13:12:38.229Z,7.56
2023-03-14T13:13:41.185Z,7.56
2023-03-14T13:15:16.878Z,7.56
2023-03-14T13:16:19.913Z,7.63
2023-03-14T13:17:34.608Z,7.63
2023-03-14T13:19:11.343Z,7.63
2023-03-14T13:20:14.252Z,7.56
2023-03-14T13:21:17.194Z,7.50
2023-03-14T13:22:52.076Z,7.38
2023-03-14T13:23:54.870Z,7.31
2023-03-14T13:24:57.938Z,7.31
2023-03-14T13:26:32.841Z,7.38
2023-03-14T13:27:36.291Z,7.38
2023-03-14T13:28:42.571Z,7.31
2023-03-14T13:30:17.635Z,7.31
2023-03-14T13:31:21.271Z,7.38
2023-03-14T13:32:24.275Z,7.50
2023-03-14T13:33:59.418Z,7.56
2023-03-14T13:35:02.825Z,7.63
2023-03-14T13:36:05.952Z,7.56
2023-03-14T13:37:41.418Z,7.56
2023-03-14T13:39:01.797Z,7.44
2023-03-14T13:40:07.189Z,7.50
2023-03-14T13:41:42.321Z,7.56
2023-03-14T13:42:45.950Z,7.56
2023-03-14T13:43:48.916Z,7.50
2023-03-14T13:45:23.989Z,7.44
2023-03-14T13:46:27.528Z,7.31
2023-03-14T13:47:30.797Z,7.25
2023-03-14T13:49:05.619Z,7.13
2023-03-14T13:50:08.780Z,7.13
2023-03-14T13:51:11.659Z,7.19
2023-03-14T13:52:46.460Z,7.25
2023-03-14T13:53:49.521Z,7.31
2023-03-14T13:54:52.769Z,7.38
2023-03-14T13:56:27.512Z,7.44
2023-03-14T13:57:32.564Z,7.44
2023-03-14T13:58:35.584Z,7.38
2023-03-14T14:00:12.012Z,7.44
2023-03-14T14:01:15.053Z,7.44
2023-03-14T14:02:19.415Z,7.38
2023-03-14T14:03:54.347Z,7.44
2023-03-14T14:04:58.127Z,7.31
2023-03-14T14:06:01.303Z,7.31
2023-03-14T14:07:38.777Z,7.31
2023-03-14T14:08:41.514Z,7.38
2023-03-14T14:09:44.523Z,7.44
2023-03-14T14:11:19.792Z,7.38
2023-03-14T14:13:01.758Z,7.31
2023-03-14T14:14:04.797Z,7.31
2023-03-14T14:15:42.693Z,7.19
2023-03-14T14:16:46.529Z,7.13
2023-03-14T14:17:51.131Z,7.06
2023-03-14T14:19:26.164Z,7.00
2023-03-14T14:20:29.291Z,7.00
2023-03-14T14:21:34.373Z,7.00
2023-03-14T14:23:09.773Z,7.00
2023-03-14T14:24:12.987Z,7.00
2023-03-14T14:25:15.767Z,7.00
2023-03-14T14:26:50.537Z,6.88
2023-03-14T14:27:53.568Z,6.88
2023-03-14T14:28:56.841Z,7.00
2023-03-14T14:30:31.910Z,7.06
2023-03-14T14:31:35.405Z,7.06
2023-03-14T14:32:38.473Z,6.94
2023-03-14T14:34:14.264Z,6.88
2023-03-14T14:35:17.442Z,6.81
2023-03-14T14:36:20.759Z,6.75
2023-03-14T14:37:55.854Z,6.69
2023-03-14T14:38:58.900Z,6.63
2023-03-14T14:40:02.045Z,6.63
2023-03-14T14:41:37.107Z,6.63
2023-03-14T14:42:40.085Z,6.56
2023-03-14T14:43:42.953Z,6.56
2023-03-14T14:45:17.961Z,6.56
2023-03-14T14:46:21.038Z,6.50
2023-03-14T14:47:25.530Z,6.50
2023-03-14T14:49:00.335Z,6.63
2023-03-14T14:50:03.239Z,6.69
2023-03-14T14:51:06.289Z,6.81
2023-03-14T14:52:41.405Z,6.94
2023-03-14T14:53:44.448Z,7.00
2023-03-14T14:54:47.407Z,7.13
2023-03-14T14:56:22.583Z,7.25
2023-03-14T14:57:25.695Z,7.25
2023-03-14T14:58:28.878Z,7.25
2023-03-14T15:00:12.611Z,7.19
2023-03-14T15:01:15.586Z,7.13
2023-03-14T15:02:18.878Z,7.06
2023-03-14T15:03:54.352Z,7.00
2023-03-14T15:04:57.191Z,6.94
2023-03-14T15:06:00.158Z,6.88
2023-03-14T15:07:35.013Z,6.81
2023-03-14T15:08:38.194Z,6.75
2023-03-14T15:09:41.274Z,6.75
2023-03-14T15:11:16.511Z,6.69
2023-03-14T15:12:20.017Z,6.56
2023-03-14T15:13:23.049Z,6.50
2023-03-14T15:14:57.993Z,6.44
2023-03-14T15:16:00.915Z,6.38
2023-03-14T15:17:04.405Z,6.31
2023-03-14T15:18:39.036Z,6.31
2023-03-14T15:19:59.200Z,6.31
2023-03-14T15:21:02.296Z,6.25
2023-03-14T15:22:36.940Z,6.25
2023-03-14T15:23:39.851Z,6.25
2023-03-14T15:24:42.817Z,6.25
2023-03-14T15:26:42.005Z,6.19
2023-03-14T15:27:45.119Z,6.19
2023-03-14T15:28:48.085Z,6.19
2023-03-14T15:30:22.971Z,6.13
2023-03-14T15:31:25.983Z,6.13
2023-03-14T15:32:29.415Z,6.13
2023-03-14T15:34:04.605Z,6.06
2023-03-14T15:35:07.770Z,6.06
2023-03-14T15:36:13.585Z,6.06
2023-03-14T15:37:48.702Z,6.06
2023-03-14T15:38:51.764Z,6.06
2023-03-14T15:39:54.896Z,6.00
2023-03-14T15:41:29.675Z,6.00
2023-03-14T15:42:32.651Z,6.00
2023-03-14T15:43:35.816Z,5.94
2023-03-14T15:45:10.946Z,5.94
2023-03-14T15:46:14.157Z,5.88
2023-03-14T15:47:17.557Z,5.88
2023-03-14T15:48:52.490Z,5.88
2023-03-14T15:49:55.366Z,5.88
2023-03-14T15:50:58.247Z,5.88
2023-03-14T15:52:33.258Z,5.88
2023-03-14T15:53:36.253Z,5.88
2023-03-14T15:54:39.218Z,5.88
2023-03-14T15:56:14.408Z,5.94
2023-03-14T15:57:21.146Z,5.94
2023-03-14T15:58:24.611Z,5.94
2023-03-14T15:59:59.562Z,5.94
2023-03-14T16:00:12.104Z,5.94
2023-03-14T16:01:15.362Z,5.88
2023-03-14T16:02:19.133Z,5.88
2023-03-14T16:03:54.084Z,5.88
2023-03-14T16:04:57.149Z,5.88
2023-03-14T16:06:00.355Z,5.94
2023-03-14T16:07:35.243Z,5.88
2023-03-14T16:08:38.313Z,5.94
2023-03-14T16:09:41.490Z,5.94
2023-03-14T16:11:16.982Z,5.94
2023-03-14T16:12:20.572Z,5.94
2023-03-14T16:13:23.421Z,5.88
2023-03-14T16:14:58.332Z,5.88
2023-03-14T16:16:01.366Z,5.81